sensor_id;sensor_type;location;lat;lon;timestamp;pressure;altitude;pressure_sealevel;temperature;humidity
50123;BME280;36021;48.670;6.184;2023-02-18T00:00:37;100236.44;;;11.86;100.00
50123;BME280;36021;48.670;6.184;2023-02-18T00:03:02;100227.63;;;11.84;100.00
50123;BME280;36021;48.670;6.184;2023-02-18T00:05:28;100216.28;;;11.86;100.00
50123;BME280;36021;48.670;6.184;2023-02-18T00:07:53;100219.03;;;11.86;100.00
50123;BME280;36021;48.670;6.184;2023-02-18T00:10:19;100220.72;;;11.87;100.00
50123;BME280;36021;48.670;6.184;2023-02-18T00:12:44;100216.31;;;11.91;100.00
50123;BME280;36021;48.670;6.184;2023-02-18T00:15:10;100219.88;;;11.86;100.00
50123;BME280;36021;48.670;6.184;2023-02-18T00:17:36;100217.41;;;11.90;100.00
50123;BME280;36021;48.670;6.184;2023-02-18T00:20:02;100212.97;;;11.84;100.00
50123;BME280;36021;48.670;6.184;2023-02-18T00:22:28;100219.03;;;11.86;100.00
50123;BME280;36021;48.670;6.184;2023-02-18T00:24:54;100223.44;;;11.82;100.00
50123;BME280;36021;48.670;6.184;2023-02-18T00:27:19;100222.91;;;11.85;100.00
50123;BME280;36021;48.670;6.184;2023-02-18T00:29:45;100210.50;;;11.87;100.00
50123;BME280;36021;48.670;6.184;2023-02-18T00:32:12;100208.53;;;11.88;100.00
50123;BME280;36021;48.670;6.184;2023-02-18T00:34:37;100208.03;;;11.91;100.00
50123;BME280;36021;48.670;6.184;2023-02-18T00:37:03;100201.91;;;11.89;100.00
50123;BME280;36021;48.670;6.184;2023-02-18T00:39:29;100204.97;;;11.92;100.00
50123;BME280;36021;48.670;6.184;2023-02-18T00:41:54;100192.53;;;11.90;100.00
50123;BME280;36021;48.670;6.184;2023-02-18T00:44:20;100194.47;;;11.84;100.00
50123;BME280;36021;48.670;6.184;2023-02-18T00:46:48;100178.16;;;11.88;100.00
50123;BME280;36021;48.670;6.184;2023-02-18T00:49:14;100185.91;;;11.91;100.00
50123;BME280;36021;48.670;6.184;2023-02-18T00:51:40;100189.50;;;11.86;100.00
50123;BME280;36021;48.670;6.184;2023-02-18T00:54:06;100195.28;;;11.85;100.00
50123;BME280;36021;48.670;6.184;2023-02-18T00:56:31;100182.03;;;11.92;100.00
50123;BME280;36021;48.670;6.184;2023-02-18T00:58:57;100179.25;;;11.92;100.00
50123;BME280;36021;48.670;6.184;2023-02-18T01:01:22;100182.88;;;11.87;100.00
50123;BME280;36021;48.670;6.184;2023-02-18T01:03:48;100191.97;;;11.93;100.00
50123;BME280;36021;48.670;6.184;2023-02-18T01:06:14;100189.75;;;11.95;100.00
50123;BME280;36021;48.670;6.184;2023-02-18T01:08:40;100192.25;;;11.91;100.00
50123;BME280;36021;48.670;6.184;2023-02-18T01:11:06;100191.44;;;11.96;100.00
50123;BME280;36021;48.670;6.184;2023-02-18T01:13:31;100200.53;;;11.91;100.00
50123;BME280;36021;48.670;6.184;2023-02-18T01:15:57;100188.94;;;11.94;100.00
50123;BME280;36021;48.670;6.184;2023-02-18T01:18:24;100179.28;;;11.97;100.00
50123;BME280;36021;48.670;6.184;2023-02-18T01:20:50;100186.16;;;11.94;100.00
50123;BME280;36021;48.670;6.184;2023-02-18T01:23:16;100182.34;;;12.00;100.00
50123;BME280;36021;48.670;6.184;2023-02-18T01:25:41;100161.31;;;11.99;100.00
50123;BME280;36021;48.670;6.184;2023-02-18T01:28:08;100170.44;;;12.00;100.00
50123;BME280;36021;48.670;6.184;2023-02-18T01:30:35;100159.38;;;12.00;100.00
50123;BME280;36021;48.670;6.184;2023-02-18T01:33:03;100165.47;;;12.02;100.00
50123;BME280;36021;48.670;6.184;2023-02-18T01:35:29;100155.50;;;12.01;100.00
50123;BME280;36021;48.670;6.184;2023-02-18T01:37:55;100158.84;;;12.03;100.00
50123;BME280;36021;48.670;6.184;2023-02-18T01:40:22;100161.88;;;12.01;100.00
50123;BME280;36021;48.670;6.184;2023-02-18T01:42:49;100155.78;;;12.05;100.00
50123;BME280;36021;48.670;6.184;2023-02-18T01:50:33;100147.22;;;12.06;100.00
50123;BME280;36021;48.670;6.184;2023-02-18T01:53:00;100160.19;;;12.11;100.00
50123;BME280;36021;48.670;6.184;2023-02-18T01:55:29;100160.50;;;12.04;100.00
50123;BME280;36021;48.670;6.184;2023-02-18T01:57:56;100156.63;;;12.05;100.00
50123;BME280;36021;48.670;6.184;2023-02-18T02:00:23;100159.66;;;12.04;100.00
50123;BME280;36021;48.670;6.184;2023-02-18T02:02:50;100164.34;;;11.98;100.00
50123;BME280;36021;48.670;6.184;2023-02-18T02:05:16;100162.72;;;12.07;100.00
50123;BME280;36021;48.670;6.184;2023-02-18T02:07:42;100167.66;;;12.05;100.00
50123;BME280;36021;48.670;6.184;2023-02-18T02:10:10;100154.13;;;12.09;100.00
50123;BME280;36021;48.670;6.184;2023-02-18T02:31:17;100136.72;;;12.13;100.00
50123;BME280;36021;48.670;6.184;2023-02-18T02:36:28;100130.63;;;12.11;100.00
50123;BME280;36021;48.670;6.184;2023-02-18T02:44:21;100132.03;;;12.14;100.00
50123;BME280;36021;48.670;6.184;2023-02-18T02:46:51;100128.41;;;12.18;100.00
50123;BME280;36021;48.670;6.184;2023-02-18T02:52:07;100115.16;;;12.20;100.00
50123;BME280;36021;48.670;6.184;2023-02-18T02:54:34;100106.88;;;12.15;100.00
50123;BME280;36021;48.670;6.184;2023-02-18T02:59:31;100100.22;;;12.21;100.00
50123;BME280;36021;48.670;6.184;2023-02-18T03:02:06;100097.75;;;12.10;100.00
50123;BME280;36021;48.670;6.184;2023-02-18T03:07:13;100091.94;;;12.16;100.00
50123;BME280;36021;48.670;6.184;2023-02-18T03:14:43;100083.09;;;12.14;100.00
50123;BME280;36021;48.670;6.184;2023-02-18T03:17:13;100074.53;;;12.16;100.00
50123;BME280;36021;48.670;6.184;2023-02-18T03:19:46;100077.06;;;12.07;100.00
50123;BME280;36021;48.670;6.184;2023-02-18T03:22:24;100076.47;;;12.05;100.00
50123;BME280;36021;48.670;6.184;2023-02-18T03:24:52;100066.00;;;12.07;100.00
50123;BME280;36021;48.670;6.184;2023-02-18T03:27:26;100080.38;;;12.04;100.00
50123;BME280;36021;48.670;6.184;2023-02-18T03:29:54;100072.09;;;12.04;100.00
50123;BME280;36021;48.670;6.184;2023-02-18T03:32:21;100075.41;;;11.96;100.00
50123;BME280;36021;48.670;6.184;2023-02-18T03:34:52;100069.31;;;11.99;100.00
50123;BME280;36021;48.670;6.184;2023-02-18T03:37:21;100075.41;;;11.96;100.00
50123;BME280;36021;48.670;6.184;2023-02-18T03:39:48;100064.88;;;11.98;100.00
50123;BME280;36021;48.670;6.184;2023-02-18T03:42:16;100068.22;;;12.00;100.00
50123;BME280;36021;48.670;6.184;2023-02-18T03:44:44;100078.13;;;12.01;100.00
50123;BME280;36021;48.670;6.184;2023-02-18T03:47:11;100067.66;;;12.03;100.00
50123;BME280;36021;48.670;6.184;2023-02-18T03:49:37;100069.06;;;12.00;100.00
50123;BME280;36021;48.670;6.184;2023-02-18T03:52:03;100076.50;;;12.00;100.00
50123;BME280;36021;48.670;6.184;2023-02-18T03:54:28;100070.41;;;11.98;100.00
50123;BME280;36021;48.670;6.184;2023-02-18T03:56:56;100061.03;;;11.99;100.00
50123;BME280;36021;48.670;6.184;2023-02-18T03:59:22;100063.78;;;11.99;100.00
50123;BME280;36021;48.670;6.184;2023-02-18T04:01:48;100060.19;;;11.98;100.00
50123;BME280;36021;48.670;6.184;2023-02-18T04:04:13;100058.00;;;12.00;100.00
50123;BME280;36021;48.670;6.184;2023-02-18T04:06:39;100063.25;;;11.97;100.00
50123;BME280;36021;48.670;6.184;2023-02-18T04:09:04;100064.34;;;12.06;100.00
50123;BME280;36021;48.670;6.184;2023-02-18T04:11:34;100063.78;;;12.04;100.00
50123;BME280;36021;48.670;6.184;2023-02-18T04:14:00;100060.19;;;12.09;100.00
50123;BME280;36021;48.670;6.184;2023-02-18T04:16:26;100061.00;;;12.09;100.00
50123;BME280;36021;48.670;6.184;2023-02-18T04:18:51;100064.59;;;12.05;100.00
50123;BME280;36021;48.670;6.184;2023-02-18T04:21:17;100061.84;;;12.10;100.00
50123;BME280;36021;48.670;6.184;2023-02-18T04:23:42;100059.34;;;12.08;100.00
50123;BME280;36021;48.670;6.184;2023-02-18T04:26:08;100064.63;;;11.99;100.00
50123;BME280;36021;48.670;6.184;2023-02-18T04:28:33;100056.88;;;12.01;100.00
50123;BME280;36021;48.670;6.184;2023-02-18T04:31:00;100052.19;;;12.02;100.00
50123;BME280;36021;48.670;6.184;2023-02-18T04:33:26;100052.75;;;12.04;100.00
50123;BME280;36021;48.670;6.184;2023-02-18T04:35:52;100058.25;;;12.09;100.00
50123;BME280;36021;48.670;6.184;2023-02-18T04:38:17;100052.72;;;12.09;100.00
50123;BME280;36021;48.670;6.184;2023-02-18T04:40:43;100048.03;;;12.10;100.00
50123;BME280;36021;48.670;6.184;2023-02-18T04:43:08;100048.31;;;12.03;100.00
50123;BME280;36021;48.670;6.184;2023-02-18T04:45:34;100055.50;;;12.04;100.00
50123;BME280;36021;48.670;6.184;2023-02-18T04:48:00;100043.59;;;12.09;100.00
50123;BME280;36021;48.670;6.184;2023-02-18T04:50:26;100042.78;;;12.03;100.00
50123;BME280;36021;48.670;6.184;2023-02-18T04:52:51;100048.56;;;12.01;100.00
50123;BME280;36021;48.670;6.184;2023-02-18T04:55:17;100040.84;;;12.09;100.00
50123;BME280;36021;48.670;6.184;2023-02-18T04:57:42;100049.16;;;12.04;100.00
50123;BME280;36021;48.670;6.184;2023-02-18T05:00:09;100048.84;;;12.10;100.00
50123;BME280;36021;48.670;6.184;2023-02-18T05:02:36;100036.69;;;12.06;100.00
50123;BME280;36021;48.670;6.184;2023-02-18T05:05:02;100049.97;;;11.99;100.00
50123;BME280;36021;48.670;6.184;2023-02-18T05:07:27;100038.09;;;11.98;100.00
50123;BME280;36021;48.670;6.184;2023-02-18T05:09:53;100036.97;;;11.94;100.00
50123;BME280;36021;48.670;6.184;2023-02-18T05:12:18;100032.84;;;11.97;100.00
50123;BME280;36021;48.670;6.184;2023-02-18T05:14:44;100033.94;;;12.01;100.00
50123;BME280;36021;48.670;6.184;2023-02-18T05:17:10;100024.53;;;12.02;100.00
50123;BME280;36021;48.670;6.184;2023-02-18T05:19:35;100027.31;;;12.02;100.00
50123;BME280;36021;48.670;6.184;2023-02-18T05:22:01;100026.22;;;12.03;100.00
50123;BME280;36021;48.670;6.184;2023-02-18T05:24:26;100013.50;;;12.02;100.00
50123;BME280;36021;48.670;6.184;2023-02-18T05:26:52;100021.25;;;11.95;100.00
50123;BME280;36021;48.670;6.184;2023-02-18T05:29:17;100011.31;;;12.04;100.00
50123;BME280;36021;48.670;6.184;2023-02-18T05:31:46;100015.16;;;12.03;100.00
50123;BME280;36021;48.670;6.184;2023-02-18T05:34:18;100015.16;;;12.03;100.00
50123;BME280;36021;48.670;6.184;2023-02-18T05:36:44;100007.69;;;12.04;100.00
50123;BME280;36021;48.670;6.184;2023-02-18T05:39:09;100010.75;;;11.97;100.00
50123;BME280;36021;48.670;6.184;2023-02-18T05:41:35;100011.28;;;11.99;100.00
50123;BME280;36021;48.670;6.184;2023-02-18T05:44:00;100008.28;;;12.00;100.00
50123;BME280;36021;48.670;6.184;2023-02-18T05:46:44;100008.25;;;12.06;100.00
50123;BME280;36021;48.670;6.184;2023-02-18T05:49:09;100005.22;;;12.02;100.00
50123;BME280;36021;48.670;6.184;2023-02-18T05:51:35;100008.25;;;12.06;100.00
50123;BME280;36021;48.670;6.184;2023-02-18T05:54:02;100010.47;;;12.04;100.00
50123;BME280;36021;48.670;6.184;2023-02-18T05:56:28;100008.25;;;12.06;100.00
50123;BME280;36021;48.670;6.184;2023-02-18T05:58:53;100002.44;;;12.07;100.00
50123;BME280;36021;48.670;6.184;2023-02-18T06:01:19;100012.38;;;12.13;100.00
50123;BME280;36021;48.670;6.184;2023-02-18T06:03:44;100013.47;;;12.12;100.00
50123;BME280;36021;48.670;6.184;2023-02-18T06:06:10;100001.84;;;12.15;100.00
50123;BME280;36021;48.670;6.184;2023-02-18T06:08:35;100009.88;;;12.12;100.00
50123;BME280;36021;48.670;6.184;2023-02-18T06:11:01;100006.28;;;12.16;100.00
50123;BME280;36021;48.670;6.184;2023-02-18T06:13:27;100017.34;;;12.11;100.00
50123;BME280;36021;48.670;6.184;2023-02-18T06:15:52;100014.31;;;12.08;100.00
50123;BME280;36021;48.670;6.184;2023-02-18T06:18:20;100014.84;;;12.15;100.00
50123;BME280;36021;48.670;6.184;2023-02-18T06:20:46;100015.44;;;12.07;100.00
50123;BME280;36021;48.670;6.184;2023-02-18T06:23:11;99999.13;;;12.10;100.00
50123;BME280;36021;48.670;6.184;2023-02-18T06:25:37;100003.50;;;12.11;100.00
50123;BME280;36021;48.670;6.184;2023-02-18T06:28:02;100010.19;;;12.10;100.00
50123;BME280;36021;48.670;6.184;2023-02-18T06:30:28;100012.09;;;12.10;100.00
50123;BME280;36021;48.670;6.184;2023-02-18T06:32:53;100001.88;;;12.05;100.00
50123;BME280;36021;48.670;6.184;2023-02-18T06:35:20;100012.66;;;12.07;100.00
50123;BME280;36021;48.670;6.184;2023-02-18T06:37:45;100018.44;;;12.15;100.00
50123;BME280;36021;48.670;6.184;2023-02-18T06:40:12;100025.13;;;12.04;100.00
50123;BME280;36021;48.670;6.184;2023-02-18T06:42:37;100015.69;;;12.10;100.00
50123;BME280;36021;48.670;6.184;2023-02-18T06:45:04;100026.19;;;12.13;100.00
50123;BME280;36021;48.670;6.184;2023-02-18T06:47:32;100030.34;;;12.06;100.00
50123;BME280;36021;48.670;6.184;2023-02-18T06:49:58;100028.69;;;12.05;100.00
50123;BME280;36021;48.670;6.184;2023-02-18T06:52:23;100017.91;;;12.08;100.00
50123;BME280;36021;48.670;6.184;2023-02-18T06:54:49;100010.16;;;12.05;100.00
50123;BME280;36021;48.670;6.184;2023-02-18T06:57:16;100012.66;;;12.07;100.00
50123;BME280;36021;48.670;6.184;2023-02-18T06:59:42;100005.78;;;12.04;100.00
50123;BME280;36021;48.670;6.184;2023-02-18T07:02:11;100008.22;;;12.11;100.00
50123;BME280;36021;48.670;6.184;2023-02-18T07:04:37;100002.44;;;12.07;100.00
50123;BME280;36021;48.670;6.184;2023-02-18T07:07:02;100004.09;;;12.13;100.00
50123;BME280;36021;48.670;6.184;2023-02-18T07:09:28;99999.13;;;12.10;100.00
50123;BME280;36021;48.670;6.184;2023-02-18T07:11:53;99994.16;;;12.07;100.00
50123;BME280;36021;48.670;6.184;2023-02-18T07:14:19;100000.19;;;12.14;100.00
50123;BME280;36021;48.670;6.184;2023-02-18T07:16:45;99997.72;;;12.13;100.00
50123;BME280;36021;48.670;6.184;2023-02-18T07:19:10;100005.72;;;12.14;100.00
50123;BME280;36021;48.670;6.184;2023-02-18T07:21:36;100016.50;;;12.11;100.00
50123;BME280;36021;48.670;6.184;2023-02-18T07:24:02;99999.66;;;12.12;100.00
50123;BME280;36021;48.670;6.184;2023-02-18T07:26:27;100019.00;;;12.12;100.00
50123;BME280;36021;48.670;6.184;2023-02-18T07:28:53;100003.25;;;12.13;100.00
50123;BME280;36021;48.670;6.184;2023-02-18T07:31:19;100001.84;;;12.15;100.00
50123;BME280;36021;48.670;6.184;2023-02-18T07:33:45;100017.34;;;12.11;100.00
50123;BME280;36021;48.670;6.184;2023-02-18T07:36:11;100001.88;;;12.10;100.00
50123;BME280;36021;48.670;6.184;2023-02-18T07:38:36;100014.31;;;12.13;100.00
50123;BME280;36021;48.670;6.184;2023-02-18T07:41:02;100019.03;;;12.07;100.00
50123;BME280;36021;48.670;6.184;2023-02-18T07:43:27;100021.22;;;12.10;100.00
50123;BME280;36021;48.670;6.184;2023-02-18T07:45:53;100020.13;;;12.06;100.00
50123;BME280;36021;48.670;6.184;2023-02-18T07:48:20;100021.78;;;12.07;100.00
50123;BME280;36021;48.670;6.184;2023-02-18T07:50:45;100009.34;;;12.10;100.00
50123;BME280;36021;48.670;6.184;2023-02-18T07:53:12;100005.78;;;12.04;100.00
50123;BME280;36021;48.670;6.184;2023-02-18T07:55:37;100006.88;;;12.03;100.00
50123;BME280;36021;48.670;6.184;2023-02-18T07:58:20;99985.34;;;12.00;100.00
50123;BME280;36021;48.670;6.184;2023-02-18T08:00:46;100005.78;;;12.04;100.00
50123;BME280;36021;48.670;6.184;2023-02-18T08:03:14;100006.28;;;12.11;100.00
50123;BME280;36021;48.670;6.184;2023-02-18T08:05:39;100009.91;;;12.07;100.00
50123;BME280;36021;48.670;6.184;2023-02-18T08:08:05;99994.41;;;12.11;100.00
50123;BME280;36021;48.670;6.184;2023-02-18T08:10:31;100001.84;;;12.15;100.00
50123;BME280;36021;48.670;6.184;2023-02-18T08:12:56;99993.56;;;12.20;100.00
50123;BME280;36021;48.670;6.184;2023-02-18T08:15:22;100001.28;;;12.18;100.00
50123;BME280;36021;48.670;6.184;2023-02-18T08:17:47;99994.63;;;12.24;100.00
50123;BME280;36021;48.670;6.184;2023-02-18T08:20:13;99998.53;;;12.23;100.00
50123;BME280;36021;48.670;6.184;2023-02-18T08:22:38;99992.13;;;12.28;100.00
50123;BME280;36021;48.670;6.184;2023-02-18T08:25:04;99991.88;;;12.24;100.00
50123;BME280;36021;48.670;6.184;2023-02-18T08:27:30;99986.06;;;12.26;100.00
50123;BME280;36021;48.670;6.184;2023-02-18T08:29:55;99994.06;;;12.27;100.00
50123;BME280;36021;48.670;6.184;2023-02-18T08:32:21;99989.66;;;12.21;100.00
50123;BME280;36021;48.670;6.184;2023-02-18T08:34:49;99982.50;;;12.20;100.00
50123;BME280;36021;48.670;6.184;2023-02-18T08:37:15;99995.19;;;12.26;100.00
50123;BME280;36021;48.670;6.184;2023-02-18T08:39:40;99991.88;;;12.29;100.00
50123;BME280;36021;48.670;6.184;2023-02-18T08:42:06;99972.47;;;12.34;100.00
50123;BME280;36021;48.670;6.184;2023-02-18T08:44:32;99983.53;;;12.34;100.00
50123;BME280;36021;48.670;6.184;2023-02-18T08:46:59;99986.03;;;12.36;100.00
50123;BME280;36021;48.670;6.184;2023-02-18T08:49:24;99985.47;;;12.34;100.00
50123;BME280;36021;48.670;6.184;2023-02-18T08:51:50;99989.63;;;12.31;100.00
50123;BME280;36021;48.670;6.184;2023-02-18T08:54:16;99985.19;;;12.35;100.00
50123;BME280;36021;48.670;6.184;2023-02-18T08:56:42;100002.03;;;12.44;100.00
50123;BME280;36021;48.670;6.184;2023-02-18T08:59:09;99995.59;;;12.59;100.00
50123;BME280;36021;48.670;6.184;2023-02-18T09:01:35;99995.59;;;12.59;100.00
50123;BME280;36021;48.670;6.184;2023-02-18T09:04:00;99991.75;;;12.60;100.00
50123;BME280;36021;48.670;6.184;2023-02-18T09:06:26;99988.72;;;12.56;100.00
50123;BME280;36021;48.670;6.184;2023-02-18T09:08:52;100000.03;;;12.60;100.00
50123;BME280;36021;48.670;6.184;2023-02-18T09:11:18;100001.91;;;12.69;100.00
50123;BME280;36021;48.670;6.184;2023-02-18T09:13:44;99986.75;;;12.62;100.00
50123;BME280;36021;48.670;6.184;2023-02-18T09:16:11;99990.91;;;12.59;100.00
50123;BME280;36021;48.670;6.184;2023-02-18T09:18:37;99988.34;;;12.68;100.00
50123;BME280;36021;48.670;6.184;2023-02-18T09:21:03;99994.19;;;12.61;100.00
50123;BME280;36021;48.670;6.184;2023-02-18T09:23:29;99991.44;;;12.66;100.00
50123;BME280;36021;48.670;6.184;2023-02-18T09:25:55;99990.91;;;12.59;100.00
50123;BME280;36021;48.670;6.184;2023-02-18T09:28:21;99996.97;;;12.66;100.00
50123;BME280;36021;48.670;6.184;2023-02-18T09:30:47;99988.88;;;12.75;100.00
50123;BME280;36021;48.670;6.184;2023-02-18T09:33:13;99987.78;;;12.71;100.00
50123;BME280;36021;48.670;6.184;2023-02-18T09:35:39;99977.56;;;12.71;100.00
50123;BME280;36021;48.670;6.184;2023-02-18T09:38:05;99985.59;;;12.73;100.00
50123;BME280;36021;48.670;6.184;2023-02-18T09:40:31;99988.84;;;12.80;100.00
50123;BME280;36021;48.670;6.184;2023-02-18T09:42:58;99985.50;;;12.83;100.00
50123;BME280;36021;48.670;6.184;2023-02-18T09:45:24;99988.19;;;12.98;100.00
50123;BME280;36021;48.670;6.184;2023-02-18T09:47:50;99997.56;;;13.02;100.00
50123;BME280;36021;48.670;6.184;2023-02-18T09:50:20;100003.34;;;13.11;100.00
50123;BME280;36021;48.670;6.184;2023-02-18T09:52:47;99997.78;;;13.05;100.00
50123;BME280;36021;48.670;6.184;2023-02-18T09:57:42;99979.16;;;12.82;100.00
50123;BME280;36021;48.670;6.184;2023-02-18T10:00:28;100011.94;;;12.99;100.00
50123;BME280;36021;48.670;6.184;2023-02-18T10:02:56;100012.03;;;12.89;100.00
50123;BME280;36021;48.670;6.184;2023-02-18T10:05:23;99995.81;;;12.67;100.00
50123;BME280;36021;48.670;6.184;2023-02-18T10:07:50;99998.38;;;12.59;100.00
50123;BME280;36021;48.670;6.184;2023-02-18T10:10:22;100008.06;;;12.56;100.00
50123;BME280;36021;48.670;6.184;2023-02-18T10:12:51;99996.34;;;12.74;100.00
50123;BME280;36021;48.670;6.184;2023-02-18T10:15:21;99996.88;;;12.76;100.00
50123;BME280;36021;48.670;6.184;2023-02-18T10:17:47;99985.00;;;12.76;100.00
50123;BME280;36021;48.670;6.184;2023-02-18T10:20:15;100012.75;;;13.10;100.00
50123;BME280;36021;48.670;6.184;2023-02-18T10:22:41;100003.19;;;13.31;100.00
50123;BME280;36021;48.670;6.184;2023-02-18T10:25:06;99983.22;;;13.68;100.00
50123;BME280;36021;48.670;6.184;2023-02-18T10:27:33;99982.06;;;13.74;100.00
50123;BME280;36021;48.670;6.184;2023-02-18T10:30:02;99983.16;;;13.73;100.00
50123;BME280;36021;48.670;6.184;2023-02-18T10:32:32;99982.19;;;13.58;100.00
50123;BME280;36021;48.670;6.184;2023-02-18T10:35:05;99986.53;;;13.70;100.00
50123;BME280;36021;48.670;6.184;2023-02-18T10:37:51;99985.56;;;14.08;100.00
50123;BME280;36021;48.670;6.184;2023-02-18T10:43:17;99982.31;;;14.01;100.00
50123;BME280;36021;48.670;6.184;2023-02-18T10:50:57;100004.06;;;13.89;100.00
50123;BME280;36021;48.670;6.184;2023-02-18T10:53:35;99997.44;;;13.85;100.00
50123;BME280;36021;48.670;6.184;2023-02-18T10:56:01;99989.38;;;14.41;100.00
50123;BME280;36021;48.670;6.184;2023-02-18T10:58:34;99986.25;;;16.19;100.00
50123;BME280;36021;48.670;6.184;2023-02-18T11:01:04;99965.78;;;14.99;100.00
50123;BME280;36021;48.670;6.184;2023-02-18T11:03:51;99997.16;;;16.02;100.00
50123;BME280;36021;48.670;6.184;2023-02-18T11:06:26;99978.28;;;15.99;100.00
50123;BME280;36021;48.670;6.184;2023-02-18T11:08:55;99962.09;;;15.74;100.00
50123;BME280;36021;48.670;6.184;2023-02-18T11:11:23;99957.16;;;14.82;100.00
50123;BME280;36021;48.670;6.184;2023-02-18T11:13:54;99980.81;;;17.04;100.00
50123;BME280;36021;48.670;6.184;2023-02-18T11:16:21;99982.69;;;17.53;100.00
50123;BME280;36021;48.670;6.184;2023-02-18T11:18:46;99971.91;;;17.16;100.00
50123;BME280;36021;48.670;6.184;2023-02-18T11:23:44;99979.75;;;18.03;100.00
50123;BME280;36021;48.670;6.184;2023-02-18T11:26:11;99982.66;;;17.09;100.00
50123;BME280;36021;48.670;6.184;2023-02-18T11:28:44;99991.25;;;16.99;100.00
50123;BME280;36021;48.670;6.184;2023-02-18T11:31:15;99985.09;;;16.47;100.00
50123;BME280;36021;48.670;6.184;2023-02-18T11:33:46;99995.31;;;16.38;100.00
50123;BME280;36021;48.670;6.184;2023-02-18T11:38:43;99985.84;;;16.12;100.00
50123;BME280;36021;48.670;6.184;2023-02-18T11:41:10;99996.09;;;15.33;100.00
50123;BME280;36021;48.670;6.184;2023-02-18T11:43:41;99990.09;;;14.89;100.00
50123;BME280;36021;48.670;6.184;2023-02-18T11:46:15;99996.34;;;14.99;100.00
50123;BME280;36021;48.670;6.184;2023-02-18T11:48:41;100006.72;;;14.51;100.00
50123;BME280;36021;48.670;6.184;2023-02-18T11:51:17;100003.63;;;13.48;100.00
50123;BME280;36021;48.670;6.184;2023-02-18T11:54:01;100016.41;;;13.39;100.00
50123;BME280;36021;48.670;6.184;2023-02-18T11:56:30;100023.59;;;13.01;100.00
50123;BME280;36021;48.670;6.184;2023-02-18T11:58:57;100023.03;;;12.99;100.00
50123;BME280;36021;48.670;6.184;2023-02-18T12:01:27;100013.81;;;12.65;100.00
50123;BME280;36021;48.670;6.184;2023-02-18T12:03:57;100008.72;;;12.87;100.00
50123;BME280;36021;48.670;6.184;2023-02-18T12:06:31;100013.72;;;12.80;100.00
50123;BME280;36021;48.670;6.184;2023-02-18T12:09:19;100024.09;;;12.59;100.00
50123;BME280;36021;48.670;6.184;2023-02-18T12:11:50;100021.59;;;12.63;100.00
50123;BME280;36021;48.670;6.184;2023-02-18T12:14:18;100013.97;;;12.24;100.00
50123;BME280;36021;48.670;6.184;2023-02-18T12:17:08;100019.03;;;12.02;100.00
50123;BME280;36021;48.670;6.184;2023-02-18T12:27:22;100006.72;;;12.48;100.00
50123;BME280;36021;48.670;6.184;2023-02-18T12:30:08;99996.44;;;12.59;100.00
50123;BME280;36021;48.670;6.184;2023-02-18T12:51:17;99983.34;;;12.70;100.00
50123;BME280;36021;48.670;6.184;2023-02-18T13:01:57;99957.41;;;12.66;100.00
50123;BME280;36021;48.670;6.184;2023-02-18T13:04:36;99972.84;;;12.72;100.00
50123;BME280;36021;48.670;6.184;2023-02-18T13:07:11;99948.91;;;12.52;100.00
50123;BME280;36021;48.670;6.184;2023-02-18T13:17:16;99955.16;;;12.73;100.00
50123;BME280;36021;48.670;6.184;2023-02-18T13:19:46;99946.22;;;12.86;100.00
50123;BME280;36021;48.670;6.184;2023-02-18T13:22:14;99939.53;;;12.92;100.00
50123;BME280;36021;48.670;6.184;2023-02-18T13:24:42;99950.09;;;12.80;100.00
50123;BME280;36021;48.670;6.184;2023-02-18T13:27:13;99948.94;;;12.91;100.00
50123;BME280;36021;48.670;6.184;2023-02-18T13:30:30;99941.22;;;12.88;100.00
50123;BME280;36021;48.670;6.184;2023-02-18T13:40:12;99923.00;;;12.82;100.00
50123;BME280;36021;48.670;6.184;2023-02-18T13:42:41;99934.69;;;13.07;100.00
50123;BME280;36021;48.670;6.184;2023-02-18T13:45:24;99924.06;;;13.25;100.00
50123;BME280;36021;48.670;6.184;2023-02-18T13:47:50;99906.06;;;13.27;100.00
50123;BME280;36021;48.670;6.184;2023-02-18T13:55:17;99896.63;;;13.57;100.00
50123;BME280;36021;48.670;6.184;2023-02-18T13:57:46;99889.13;;;13.81;100.00
50123;BME280;36021;48.670;6.184;2023-02-18T14:00:16;99897.94;;;13.88;100.00
50123;BME280;36021;48.670;6.184;2023-02-18T14:02:58;99893.00;;;14.28;100.00
50123;BME280;36021;48.670;6.184;2023-02-18T14:05:25;99915.38;;;13.89;100.00
50123;BME280;36021;48.670;6.184;2023-02-18T14:08:05;99886.19;;;13.96;100.00
50123;BME280;36021;48.670;6.184;2023-02-18T14:10:32;99882.84;;;13.76;100.00
50123;BME280;36021;48.670;6.184;2023-02-18T14:25:47;99875.22;;;15.36;100.00
50123;BME280;36021;48.670;6.184;2023-02-18T14:31:00;99850.50;;;15.67;100.00
50123;BME280;36021;48.670;6.184;2023-02-18T14:33:29;99863.88;;;15.78;100.00
50123;BME280;36021;48.670;6.184;2023-02-18T14:36:15;99860.75;;;16.21;100.00
50123;BME280;36021;48.670;6.184;2023-02-18T14:41:38;99861.38;;;16.31;100.00
50123;BME280;36021;48.670;6.184;2023-02-18T14:44:11;99868.53;;;16.59;100.00
50123;BME280;36021;48.670;6.184;2023-02-18T14:51:41;99872.72;;;15.94;100.00
50123;BME280;36021;48.670;6.184;2023-02-18T14:54:11;99876.00;;;15.55;100.00
50123;BME280;36021;48.670;6.184;2023-02-18T14:56:41;99869.38;;;15.37;100.00
50123;BME280;36021;48.670;6.184;2023-02-18T14:59:11;99873.19;;;15.09;100.00
50123;BME280;36021;48.670;6.184;2023-02-18T15:01:39;99861.78;;;14.41;100.00
50123;BME280;36021;48.670;6.184;2023-02-18T15:04:05;99863.81;;;14.35;100.00